sensor_id;sensor_type;location;lat;lon;timestamp;pressure;altitude;pressure_sealevel;temperature;humidity
22181;BME280;11256;50.830;12.834;2023-02-16T00:03:44;98393.16;;;7.30;51.18
22181;BME280;11256;50.830;12.834;2023-02-16T00:08:46;98400.63;;;7.28;51.13
22181;BME280;11256;50.830;12.834;2023-02-16T00:13:47;98417.97;;;7.32;50.94
22181;BME280;11256;50.830;12.834;2023-02-16T00:18:48;98410.25;;;7.24;51.27
22181;BME280;11256;50.830;12.834;2023-02-16T00:23:49;98417.31;;;7.25;51.02
22181;BME280;11256;50.830;12.834;2023-02-16T00:28:55;98412.88;;;7.19;51.21
22181;BME280;11256;50.830;12.834;2023-02-16T00:33:59;98408.19;;;7.14;51.46
22181;BME280;11256;50.830;12.834;2023-02-16T00:39:04;98409.59;;;7.17;51.24
22181;BME280;11256;50.830;12.834;2023-02-16T00:44:08;98406.81;;;7.12;51.30
22181;BME280;11256;50.830;12.834;2023-02-16T00:49:16;98405.63;;;7.08;52.15
22181;BME280;11256;50.830;12.834;2023-02-16T00:54:17;98390.69;;;7.00;51.54
22181;BME280;11256;50.830;12.834;2023-02-16T00:59:19;98401.81;;;7.04;52.03
22181;BME280;11256;50.830;12.834;2023-02-16T01:04:22;98390.34;;;6.97;52.12
22181;BME280;11256;50.830;12.834;2023-02-16T01:09:22;98395.72;;;6.97;52.09
22181;BME280;11256;50.830;12.834;2023-02-16T01:14:41;98380.91;;;6.83;52.37
22181;BME280;11256;50.830;12.834;2023-02-16T01:19:43;98386.31;;;6.83;52.33
22181;BME280;11256;50.830;12.834;2023-02-16T01:24:44;98389.22;;;6.81;52.43
22181;BME280;11256;50.830;12.834;2023-02-16T01:29:44;98384.34;;;6.78;53.01
22181;BME280;11256;50.830;12.834;2023-02-16T01:34:45;98378.03;;;6.73;52.91
22181;BME280;11256;50.830;12.834;2023-02-16T01:39:45;98382.00;;;6.70;53.22
22181;BME280;11256;50.830;12.834;2023-02-16T01:44:51;98383.31;;;6.68;53.37
22181;BME280;11256;50.830;12.834;2023-02-16T01:49:52;98369.72;;;6.63;53.38
22181;BME280;11256;50.830;12.834;2023-02-16T01:54:57;98377.56;;;6.64;52.85
22181;BME280;11256;50.830;12.834;2023-02-16T02:00:13;98370.13;;;6.55;53.73
22181;BME280;11256;50.830;12.834;2023-02-16T02:05:27;98385.22;;;6.56;53.98
22181;BME280;11256;50.830;12.834;2023-02-16T02:15:47;98364.88;;;6.37;54.31
22181;BME280;11256;50.830;12.834;2023-02-16T02:32:09;98373.44;;;6.34;54.16
22181;BME280;11256;50.830;12.834;2023-02-16T02:37:25;98363.72;;;6.33;54.42
22181;BME280;11256;50.830;12.834;2023-02-16T02:42:47;98370.06;;;6.27;54.94
22181;BME280;11256;50.830;12.834;2023-02-16T02:47:52;98372.75;;;6.27;54.66
22181;BME280;11256;50.830;12.834;2023-02-16T02:52:53;98377.19;;;6.21;54.82
22181;BME280;11256;50.830;12.834;2023-02-16T02:57:56;98378.00;;;6.22;55.21
22181;BME280;11256;50.830;12.834;2023-02-16T03:03:23;98387.25;;;6.14;55.54
22181;BME280;11256;50.830;12.834;2023-02-16T03:08:30;98363.84;;;6.15;55.13
22181;BME280;11256;50.830;12.834;2023-02-16T03:13:36;98373.19;;;6.12;55.23
22181;BME280;11256;50.830;12.834;2023-02-16T03:18:39;98360.13;;;6.04;55.33
22181;BME280;11256;50.830;12.834;2023-02-16T03:24:00;98369.09;;;6.10;55.85
22181;BME280;11256;50.830;12.834;2023-02-16T03:29:22;98393.59;;;6.08;55.59
22181;BME280;11256;50.830;12.834;2023-02-16T03:34:24;98388.44;;;6.07;55.82
22181;BME280;11256;50.830;12.834;2023-02-16T03:39:26;98381.75;;;5.98;56.02
22181;BME280;11256;50.830;12.834;2023-02-16T03:44:27;98374.97;;;5.84;57.08
22181;BME280;11256;50.830;12.834;2023-02-16T03:49:27;98386.44;;;5.91;56.36
22181;BME280;11256;50.830;12.834;2023-02-16T03:54:27;98381.50;;;5.88;56.44
22181;BME280;11256;50.830;12.834;2023-02-16T03:59:28;98381.78;;;5.86;56.35
22181;BME280;11256;50.830;12.834;2023-02-16T04:04:28;98367.56;;;5.79;56.10
22181;BME280;11256;50.830;12.834;2023-02-16T04:09:28;98358.31;;;5.64;57.16
22181;BME280;11256;50.830;12.834;2023-02-16T04:14:29;98365.81;;;5.62;57.03
22181;BME280;11256;50.830;12.834;2023-02-16T04:19:29;98372.13;;;5.67;57.33
22181;BME280;11256;50.830;12.834;2023-02-16T04:24:29;98361.38;;;5.56;57.63
22181;BME280;11256;50.830;12.834;2023-02-16T04:29:30;98359.13;;;5.53;57.62
22181;BME280;11256;50.830;12.834;2023-02-16T04:34:30;98363.94;;;5.51;58.23
22181;BME280;11256;50.830;12.834;2023-02-16T04:39:31;98354.13;;;5.45;57.75
22181;BME280;11256;50.830;12.834;2023-02-16T04:44:31;98357.25;;;5.42;58.04
22181;BME280;11256;50.830;12.834;2023-02-16T04:49:32;98361.56;;;5.43;57.25
22181;BME280;11256;50.830;12.834;2023-02-16T04:54:32;98371.13;;;5.39;58.15
22181;BME280;11256;50.830;12.834;2023-02-16T04:59:33;98359.22;;;5.35;58.46
22181;BME280;11256;50.830;12.834;2023-02-16T05:04:33;98360.50;;;5.32;57.84
22181;BME280;11256;50.830;12.834;2023-02-16T05:09:33;98354.16;;;5.27;57.75
22181;BME280;11256;50.830;12.834;2023-02-16T05:14:35;98373.59;;;5.40;57.63
22181;BME280;11256;50.830;12.834;2023-02-16T05:19:43;98366.22;;;5.36;58.02
22181;BME280;11256;50.830;12.834;2023-02-16T05:24:43;98380.16;;;5.44;58.23
22181;BME280;11256;50.830;12.834;2023-02-16T05:29:44;98376.63;;;5.44;57.78
22181;BME280;11256;50.830;12.834;2023-02-16T05:34:44;98373.25;;;5.37;58.11
22181;BME280;11256;50.830;12.834;2023-02-16T05:39:45;98370.34;;;5.38;58.04
22181;BME280;11256;50.830;12.834;2023-02-16T05:44:45;98375.94;;;5.37;57.59
22181;BME280;11256;50.830;12.834;2023-02-16T05:49:46;98367.97;;;5.30;58.10
22181;BME280;11256;50.830;12.834;2023-02-16T05:54:47;98379.91;;;5.34;58.09
22181;BME280;11256;50.830;12.834;2023-02-16T05:59:47;98364.34;;;5.25;58.32
22181;BME280;11256;50.830;12.834;2023-02-16T06:04:47;98379.53;;;5.31;57.98
22181;BME280;11256;50.830;12.834;2023-02-16T06:09:48;98357.47;;;5.29;57.71
22181;BME280;11256;50.830;12.834;2023-02-16T06:14:48;98370.44;;;5.32;57.95
22181;BME280;11256;50.830;12.834;2023-02-16T06:19:48;98377.69;;;5.31;57.95
22181;BME280;11256;50.830;12.834;2023-02-16T06:24:49;98376.28;;;5.29;57.89
22181;BME280;11256;50.830;12.834;2023-02-16T06:29:49;98368.09;;;5.24;58.07
22181;BME280;11256;50.830;12.834;2023-02-16T06:34:49;98361.97;;;5.17;57.89
22181;BME280;11256;50.830;12.834;2023-02-16T06:39:49;98370.16;;;5.22;58.08
22181;BME280;11256;50.830;12.834;2023-02-16T06:44:50;98376.59;;;5.21;58.58
22181;BME280;11256;50.830;12.834;2023-02-16T06:49:50;98371.44;;;5.19;58.24
22181;BME280;11256;50.830;12.834;2023-02-16T06:54:50;98387.81;;;5.18;58.56
22181;BME280;11256;50.830;12.834;2023-02-16T06:59:51;98386.88;;;5.24;58.19
22181;BME280;11256;50.830;12.834;2023-02-16T07:04:51;98385.97;;;5.30;58.49
22181;BME280;11256;50.830;12.834;2023-02-16T07:09:52;98385.63;;;5.38;58.73
22181;BME280;11256;50.830;12.834;2023-02-16T07:14:52;98394.44;;;5.56;58.63
22181;BME280;11256;50.830;12.834;2023-02-16T07:19:52;98384.56;;;5.80;59.91
22181;BME280;11256;50.830;12.834;2023-02-16T07:24:53;98375.44;;;6.27;59.96
22181;BME280;11256;50.830;12.834;2023-02-16T07:29:56;98396.13;;;6.89;59.14
22181;BME280;11256;50.830;12.834;2023-02-16T07:34:56;98385.63;;;7.32;58.48
22181;BME280;11256;50.830;12.834;2023-02-16T07:39:56;98395.13;;;7.51;56.53
22181;BME280;11256;50.830;12.834;2023-02-16T07:44:57;98386.16;;;7.62;56.78
22181;BME280;11256;50.830;12.834;2023-02-16T07:49:57;98383.81;;;7.65;55.96
22181;BME280;11256;50.830;12.834;2023-02-16T07:54:58;98378.63;;;7.80;55.86
22181;BME280;11256;50.830;12.834;2023-02-16T07:59:58;98382.41;;;7.96;55.57
22181;BME280;11256;50.830;12.834;2023-02-16T08:04:59;98381.56;;;8.12;55.41
22181;BME280;11256;50.830;12.834;2023-02-16T08:10:00;98376.63;;;8.42;55.41
22181;BME280;11256;50.830;12.834;2023-02-16T08:15:00;98391.66;;;8.76;54.76
22181;BME280;11256;50.830;12.834;2023-02-16T08:20:02;98388.41;;;9.22;54.35
22181;BME280;11256;50.830;12.834;2023-02-16T08:25:03;98392.78;;;9.54;54.18
22181;BME280;11256;50.830;12.834;2023-02-16T08:30:04;98371.13;;;9.81;53.02
22181;BME280;11256;50.830;12.834;2023-02-16T08:35:09;98379.66;;;10.31;53.37
22181;BME280;11256;50.830;12.834;2023-02-16T08:40:09;98381.44;;;10.57;52.42
22181;BME280;11256;50.830;12.834;2023-02-16T08:45:09;98368.50;;;10.74;52.26
22181;BME280;11256;50.830;12.834;2023-02-16T08:50:10;98369.38;;;10.89;50.94
22181;BME280;11256;50.830;12.834;2023-02-16T08:55:10;98381.69;;;11.27;50.47
22181;BME280;11256;50.830;12.834;2023-02-16T09:00:11;98363.59;;;11.62;50.06
22181;BME280;11256;50.830;12.834;2023-02-16T09:05:30;98379.91;;;11.82;49.51
22181;BME280;11256;50.830;12.834;2023-02-16T09:10:30;98376.63;;;12.15;49.49
22181;BME280;11256;50.830;12.834;2023-02-16T09:15:31;98379.63;;;12.19;48.09
22181;BME280;11256;50.830;12.834;2023-02-16T09:20:32;98382.81;;;12.51;49.01
22181;BME280;11256;50.830;12.834;2023-02-16T09:25:34;98376.28;;;12.57;47.70
22181;BME280;11256;50.830;12.834;2023-02-16T09:30:36;98392.44;;;13.07;47.44
22181;BME280;11256;50.830;12.834;2023-02-16T09:35:38;98375.94;;;13.47;47.99
22181;BME280;11256;50.830;12.834;2023-02-16T09:40:38;98398.41;;;14.34;45.84
22181;BME280;11256;50.830;12.834;2023-02-16T09:45:42;98396.75;;;14.67;43.87
22181;BME280;11256;50.830;12.834;2023-02-16T09:50:45;98399.47;;;15.56;44.52
22181;BME280;11256;50.830;12.834;2023-02-16T09:56:01;98392.00;;;15.98;42.85
22181;BME280;11256;50.830;12.834;2023-02-16T10:01:15;98386.84;;;16.29;43.17
22181;BME280;11256;50.830;12.834;2023-02-16T10:11:41;98388.09;;;15.49;42.17
22181;BME280;11256;50.830;12.834;2023-02-16T10:16:55;98392.50;;;15.03;42.90
22181;BME280;11256;50.830;12.834;2023-02-16T10:21:59;98381.78;;;14.88;43.36
22181;BME280;11256;50.830;12.834;2023-02-16T10:27:06;98385.56;;;14.40;44.53
22181;BME280;11256;50.830;12.834;2023-02-16T10:32:31;98380.88;;;14.12;44.87
22181;BME280;11256;50.830;12.834;2023-02-16T10:37:53;98384.88;;;13.91;45.83
22181;BME280;11256;50.830;12.834;2023-02-16T10:43:16;98380.06;;;13.78;47.50
22181;BME280;11256;50.830;12.834;2023-02-16T10:48:19;98364.59;;;13.68;46.44
22181;BME280;11256;50.830;12.834;2023-02-16T10:53:32;98377.66;;;13.71;48.89
22181;BME280;11256;50.830;12.834;2023-02-16T10:58:38;98357.94;;;13.84;48.56
22181;BME280;11256;50.830;12.834;2023-02-16T11:03:50;98357.75;;;13.76;49.44
22181;BME280;11256;50.830;12.834;2023-02-16T11:08:55;98365.72;;;14.01;48.99
22181;BME280;11256;50.830;12.834;2023-02-16T11:13:59;98355.13;;;13.94;49.17
22181;BME280;11256;50.830;12.834;2023-02-16T11:19:06;98345.06;;;13.95;49.77
22181;BME280;11256;50.830;12.834;2023-02-16T11:24:11;98347.53;;;14.25;49.38
22181;BME280;11256;50.830;12.834;2023-02-16T11:29:18;98331.88;;;14.07;49.55
22181;BME280;11256;50.830;12.834;2023-02-16T11:34:30;98324.88;;;13.96;49.76
22181;BME280;11256;50.830;12.834;2023-02-16T11:39:36;98340.34;;;14.34;49.30
22181;BME280;11256;50.830;12.834;2023-02-16T11:44:42;98325.41;;;14.97;47.80
22181;BME280;11256;50.830;12.834;2023-02-16T11:49:45;98333.13;;;15.13;47.54
22181;BME280;11256;50.830;12.834;2023-02-16T11:54:52;98332.50;;;15.40;47.62
22181;BME280;11256;50.830;12.834;2023-02-16T11:59:54;98328.78;;;15.49;47.50
22181;BME280;11256;50.830;12.834;2023-02-16T12:05:13;98326.78;;;15.18;46.60
22181;BME280;11256;50.830;12.834;2023-02-16T12:10:30;98316.41;;;15.57;46.67
22181;BME280;11256;50.830;12.834;2023-02-16T12:15:54;98317.50;;;15.56;46.67
22181;BME280;11256;50.830;12.834;2023-02-16T12:26:31;98315.56;;;16.39;45.43
22181;BME280;11256;50.830;12.834;2023-02-16T12:32:05;98294.72;;;16.11;45.12
22181;BME280;11256;50.830;12.834;2023-02-16T12:37:23;98295.31;;;16.08;46.00
22181;BME280;11256;50.830;12.834;2023-02-16T12:47:56;98294.88;;;16.01;46.40
22181;BME280;11256;50.830;12.834;2023-02-16T12:53:03;98294.00;;;16.05;46.23
22181;BME280;11256;50.830;12.834;2023-02-16T13:08:35;98286.69;;;16.46;45.47
22181;BME280;11256;50.830;12.834;2023-02-16T13:13:38;98275.44;;;16.48;45.52
22181;BME280;11256;50.830;12.834;2023-02-16T13:18:41;98271.03;;;17.01;44.28
22181;BME280;11256;50.830;12.834;2023-02-16T13:29:14;98270.91;;;17.55;43.60
22181;BME280;11256;50.830;12.834;2023-02-16T13:45:16;98261.31;;;17.44;44.06
22181;BME280;11256;50.830;12.834;2023-02-16T13:55:30;98283.75;;;17.68;43.78
22181;BME280;11256;50.830;12.834;2023-02-16T14:00:48;98279.75;;;17.52;44.44
22181;BME280;11256;50.830;12.834;2023-02-16T14:06:27;98270.84;;;17.46;43.65
22181;BME280;11256;50.830;12.834;2023-02-16T14:11:15;98256.69;;;17.75;42.71
22181;BME280;11256;50.830;12.834;2023-02-16T14:21:40;98267.66;;;17.53;43.76
22181;BME280;11256;50.830;12.834;2023-02-16T14:26:58;98280.41;;;17.71;42.74
22181;BME280;11256;50.830;12.834;2023-02-16T14:42:26;98276.53;;;17.36;42.47
22181;BME280;11256;50.830;12.834;2023-02-16T14:47:41;98276.38;;;17.19;43.10
22181;BME280;11256;50.830;12.834;2023-02-16T14:52:59;98278.94;;;17.16;42.54
22181;BME280;11256;50.830;12.834;2023-02-16T14:58:28;98266.69;;;17.00;42.66
22181;BME280;11256;50.830;12.834;2023-02-16T15:03:46;98273.69;;;16.92;42.94
22181;BME280;11256;50.830;12.834;2023-02-16T15:08:52;98276.03;;;16.85;43.06
22181;BME280;11256;50.830;12.834;2023-02-16T15:14:03;98264.38;;;16.80;42.80
22181;BME280;11256;50.830;12.834;2023-02-16T15:19:10;98269.97;;;16.75;42.15
22181;BME280;11256;50.830;12.834;2023-02-16T15:24:22;98273.00;;;16.73;41.44
22181;BME280;11256;50.830;12.834;2023-02-16T15:29:26;98267.31;;;16.70;41.43
22181;BME280;11256;50.830;12.834;2023-02-16T15:34:33;98256.78;;;16.50;41.68
22181;BME280;11256;50.830;12.834;2023-02-16T15:39:36;98264.09;;;16.41;41.31
22181;BME280;11256;50.830;12.834;2023-02-16T15:44:37;98263.66;;;16.20;41.57
22181;BME280;11256;50.830;12.834;2023-02-16T15:49:38;98265.66;;;16.15;41.39
22181;BME280;11256;50.830;12.834;2023-02-16T15:54:39;98270.69;;;15.94;42.25
22181;BME280;11256;50.830;12.834;2023-02-16T15:59:45;98273.47;;;15.76;42.38
22181;BME280;11256;50.830;12.834;2023-02-16T16:04:54;98253.13;;;15.50;42.83
22181;BME280;11256;50.830;12.834;2023-02-16T16:09:56;98266.44;;;15.38;42.82
22181;BME280;11256;50.830;12.834;2023-02-16T16:14:59;98253.06;;;15.18;43.00
22181;BME280;11256;50.830;12.834;2023-02-16T16:30:36;98258.84;;;14.56;42.81
22181;BME280;11256;50.830;12.834;2023-02-16T16:35:45;98267.19;;;14.41;42.85
22181;BME280;11256;50.830;12.834;2023-02-16T16:40:52;98247.78;;;14.19;43.34
22181;BME280;11256;50.830;12.834;2023-02-16T16:46:10;98241.50;;;13.95;43.65
22181;BME280;11256;50.830;12.834;2023-02-16T16:51:16;98247.72;;;13.72;43.82
22181;BME280;11256;50.830;12.834;2023-02-16T16:56:16;98241.84;;;13.60;44.02
22181;BME280;11256;50.830;12.834;2023-02-16T17:01:18;98248.50;;;13.44;44.29
22181;BME280;11256;50.830;12.834;2023-02-16T17:06:20;98247.56;;;13.25;44.53
22181;BME280;11256;50.830;12.834;2023-02-16T17:11:25;98249.25;;;13.16;44.46
22181;BME280;11256;50.830;12.834;2023-02-16T17:16:29;98254.81;;;13.01;44.91
22181;BME280;11256;50.830;12.834;2023-02-16T17:21:30;98253.81;;;12.82;45.15
22181;BME280;11256;50.830;12.834;2023-02-16T17:26:30;98259.31;;;12.72;45.46
22181;BME280;11256;50.830;12.834;2023-02-16T17:31:31;98266.97;;;12.60;45.85
22181;BME280;11256;50.830;12.834;2023-02-16T17:36:32;98275.44;;;12.48;45.94
22181;BME280;11256;50.830;12.834;2023-02-16T17:41:33;98277.13;;;12.39;46.31
22181;BME280;11256;50.830;12.834;2023-02-16T17:46:33;98269.81;;;12.30;46.65
22181;BME280;11256;50.830;12.834;2023-02-16T17:51:34;98278.81;;;12.20;46.92
22181;BME280;11256;50.830;12.834;2023-02-16T17:56:37;98286.97;;;12.10;47.32
22181;BME280;11256;50.830;12.834;2023-02-16T18:01:44;98286.47;;;11.98;47.70
22181;BME280;11256;50.830;12.834;2023-02-16T18:06:44;98297.59;;;11.92;47.84
22181;BME280;11256;50.830;12.834;2023-02-16T18:11:45;98301.72;;;11.74;48.28
22181;BME280;11256;50.830;12.834;2023-02-16T18:16:50;98291.38;;;11.61;48.41
22181;BME280;11256;50.830;12.834;2023-02-16T18:21:50;98292.47;;;11.60;49.07
22181;BME280;11256;50.830;12.834;2023-02-16T18:26:50;98297.59;;;11.52;49.17
22181;BME280;11256;50.830;12.834;2023-02-16T18:31:51;98279.16;;;11.39;49.63
22181;BME280;11256;50.830;12.834;2023-02-16T18:36:51;98289.19;;;11.33;49.89
22181;BME280;11256;50.830;12.834;2023-02-16T18:41:52;98292.44;;;11.25;49.96
22181;BME280;11256;50.830;12.834;2023-02-16T18:46:52;98285.66;;;11.18;50.24
22181;BME280;11256;50.830;12.834;2023-02-16T18:51:52;98299.19;;;11.13;50.48
22181;BME280;11256;50.830;12.834;2023-02-16T18:56:53;98302.41;;;11.05;50.75
22181;BME280;11256;50.830;12.834;2023-02-16T19:01:54;98304.56;;;10.93;50.66
22181;BME280;11256;50.830;12.834;2023-02-16T19:06:55;98302.94;;;10.92;51.18
22181;BME280;11256;50.830;12.834;2023-02-16T19:11:57;98300.22;;;10.87;51.19
22181;BME280;11256;50.830;12.834;2023-02-16T19:16:57;98289.38;;;10.87;51.52
22181;BME280;11256;50.830;12.834;2023-02-16T19:21:58;98277.41;;;10.78;51.53
22181;BME280;11256;50.830;12.834;2023-02-16T19:26:58;98277.16;;;10.79;51.67
22181;BME280;11256;50.830;12.834;2023-02-16T19:31:58;98283.91;;;10.77;51.92
22181;BME280;11256;50.830;12.834;2023-02-16T19:36:58;98269.78;;;10.65;52.50
22181;BME280;11256;50.830;12.834;2023-02-16T19:41:59;98269.78;;;10.65;53.08
22181;BME280;11256;50.830;12.834;2023-02-16T19:46:59;98278.44;;;10.57;53.04
22181;BME280;11256;50.830;12.834;2023-02-16T19:52:00;98283.00;;;10.46;53.17
22181;BME280;11256;50.830;12.834;2023-02-16T19:57:03;98272.44;;;10.50;53.46
22181;BME280;11256;50.830;12.834;2023-02-16T20:02:04;98273.78;;;10.47;54.06
22181;BME280;11256;50.830;12.834;2023-02-16T20:07:04;98268.06;;;10.44;54.39
22181;BME280;11256;50.830;12.834;2023-02-16T20:12:05;98261.03;;;10.43;54.42
22181;BME280;11256;50.830;12.834;2023-02-16T20:17:05;98253.97;;;10.37;54.79
22181;BME280;11256;50.830;12.834;2023-02-16T20:22:06;98235.00;;;10.32;55.27
22181;BME280;11256;50.830;12.834;2023-02-16T20:27:06;98246.63;;;10.27;55.24
22181;BME280;11256;50.830;12.834;2023-02-16T20:32:06;98237.94;;;10.25;55.55
22181;BME280;11256;50.830;12.834;2023-02-16T20:37:07;98247.97;;;10.25;55.70
22181;BME280;11256;50.830;12.834;2023-02-16T20:42:07;98241.44;;;10.21;55.54
22181;BME280;11256;50.830;12.834;2023-02-16T20:47:07;98245.22;;;10.15;55.53
22181;BME280;11256;50.830;12.834;2023-02-16T20:52:09;98235.97;;;10.11;55.82
22181;BME280;11256;50.830;12.834;2023-02-16T20:57:10;98229.50;;;10.17;56.53
22181;BME280;11256;50.830;12.834;2023-02-16T21:02:10;98232.16;;;10.07;56.22
22181;BME280;11256;50.830;12.834;2023-02-16T21:07:11;98224.03;;;10.07;56.34
22181;BME280;11256;50.830;12.834;2023-02-16T21:12:11;98210.97;;;9.99;56.73
22181;BME280;11256;50.830;12.834;2023-02-16T21:17:11;98222.16;;;10.07;56.98
22181;BME280;11256;50.830;12.834;2023-02-16T21:22:12;98215.59;;;10.03;57.18
22181;BME280;11256;50.830;12.834;2023-02-16T21:27:12;98216.41;;;9.99;57.53
22181;BME280;11256;50.830;12.834;2023-02-16T21:32:12;98196.06;;;9.96;58.14
22181;BME280;11256;50.830;12.834;2023-02-16T21:37:12;98197.72;;;10.02;57.93
22181;BME280;11256;50.830;12.834;2023-02-16T21:42:13;98192.53;;;9.96;58.24
22181;BME280;11256;50.830;12.834;2023-02-16T21:47:14;98184.75;;;9.99;58.36
22181;BME280;11256;50.830;12.834;2023-02-16T21:52:33;98189.56;;;9.92;58.19
22181;BME280;11256;50.830;12.834;2023-02-16T21:57:33;98184.69;;;9.89;58.40
22181;BME280;11256;50.830;12.834;2023-02-16T22:02:34;98158.94;;;9.82;58.58
22181;BME280;11256;50.830;12.834;2023-02-16T22:07:34;98177.34;;;9.90;58.63
22181;BME280;11256;50.830;12.834;2023-02-16T22:12:34;98161.09;;;9.85;58.58
22181;BME280;11256;50.830;12.834;2023-02-16T22:17:35;98168.13;;;9.81;58.98
22181;BME280;11256;50.830;12.834;2023-02-16T22:22:35;98168.69;;;9.83;58.46
22181;BME280;11256;50.830;12.834;2023-02-16T22:27:36;98155.13;;;9.78;59.07
22181;BME280;11256;50.830;12.834;2023-02-16T22:32:36;98147.50;;;9.70;58.65
22181;BME280;11256;50.830;12.834;2023-02-16T22:37:36;98136.97;;;9.73;58.60
22181;BME280;11256;50.830;12.834;2023-02-16T22:42:37;98140.22;;;9.75;58.48
22181;BME280;11256;50.830;12.834;2023-02-16T22:47:37;98129.09;;;9.67;58.74
22181;BME280;11256;50.830;12.834;2023-02-16T22:52:37;98124.19;;;9.64;59.11
22181;BME280;11256;50.830;12.834;2023-02-16T22:57:38;98112.31;;;9.65;58.94
22181;BME280;11256;50.830;12.834;2023-02-16T23:02:38;98114.47;;;9.68;59.02
22181;BME280;11256;50.830;12.834;2023-02-16T23:07:38;98100.16;;;9.67;59.18
22181;BME280;11256;50.830;12.834;2023-02-16T23:12:39;98105.25;;;9.69;59.66
22181;BME280;11256;50.830;12.834;2023-02-16T23:17:39;98110.41;;;9.70;59.87
22181;BME280;11256;50.830;12.834;2023-02-16T23:22:39;98113.66;;;9.62;59.65
22181;BME280;11256;50.830;12.834;2023-02-16T23:27:40;98097.66;;;9.56;59.84
22181;BME280;11256;50.830;12.834;2023-02-16T23:32:40;98106.84;;;9.55;60.57
22181;BME280;11256;50.830;12.834;2023-02-16T23:37:40;98100.88;;;9.53;59.79
22181;BME280;11256;50.830;12.834;2023-02-16T23:42:41;98111.16;;;9.51;59.64
22181;BME280;11256;50.830;12.834;2023-02-16T23:47:41;98112.81;;;9.62;60.05
22181;BME280;11256;50.830;12.834;2023-02-16T23:52:41;98100.38;;;9.61;59.76
22181;BME280;11256;50.830;12.834;2023-02-16T23:57:42;98097.41;;;9.62;59.89
